Time;durP1;ratioP1;P1;durP2;ratioP2;P2;SDS_P1;SDS_P2;PMS_P1;PMS_P2;Temp;Humidity;BMP_temperature;BMP_pressure;BME280_temperature;BME280_humidity;BME280_pressure;Samples;Min_cycle;Max_cycle;Signal;HPM_P1;HPM_P2
2024/04/22 00:01:16;;;;;;;4.00;2.70;;;;;;;3.17;84.40;100965.50;106414;1254;97955;-83
2024/04/22 00:04:01;;;;;;;4.50;3.40;;;;;;;3.17;84.22;100967.81;106405;1253;98091;-82
2024/04/22 00:06:46;;;;;;;5.20;2.50;;;;;;;3.13;83.98;100962.44;106365;1254;98479;-84
2024/04/22 00:09:33;;;;;;;4.00;2.70;;;;;;;3.11;83.71;100964.21;106457;1253;103460;-85
2024/04/22 00:12:18;;;;;;;4.70;2.60;;;;;;;3.06;83.53;100967.14;106505;1256;100469;-83
2024/04/22 00:15:05;;;;;;;3.50;2.60;;;;;;;3.04;83.85;100967.67;106201;1253;98053;-86
2024/04/22 00:17:50;;;;;;;6.00;3.00;;;;;;;3.02;83.58;100965.14;106371;1258;99231;-82
2024/04/22 00:20:39;;;;;;;4.40;2.40;;;;;;;3.03;83.56;100957.54;106465;1256;97906;-84
2024/04/22 00:23:25;;;;;;;4.40;2.50;;;;;;;3.03;83.54;100954.66;106414;1256;102397;-84
2024/04/22 00:26:11;;;;;;;6.00;2.90;;;;;;;3.03;83.68;100953.58;106533;1254;101443;-86
2024/04/22 00:28:57;;;;;;;3.60;2.90;;;;;;;3.03;83.50;100950.77;106296;1254;98387;-84
2024/04/22 00:31:43;;;;;;;4.20;2.80;;;;;;;3.01;83.49;100946.02;106311;1253;97858;-85
2024/04/22 00:34:29;;;;;;;3.10;2.30;;;;;;;3.02;83.41;100942.23;106364;1253;97881;-83
2024/04/22 00:37:15;;;;;;;4.10;2.70;;;;;;;3.01;82.88;100939.64;106377;1254;103617;-83
2024/04/22 00:40:01;;;;;;;4.70;2.60;;;;;;;2.98;82.69;100937.95;106465;1254;100852;-87
2024/04/22 00:42:48;;;;;;;6.20;2.80;;;;;;;2.95;82.33;100939.70;106266;1253;98720;-85
2024/04/22 00:45:33;;;;;;;3.00;2.30;;;;;;;2.93;82.39;100937.52;106411;1253;97944;-85
2024/04/22 00:48:26;;;;;;;2.60;2.00;;;;;;;2.95;82.65;100935.65;106448;1257;96627;-83
2024/04/22 00:51:12;;;;;;;4.30;2.10;;;;;;;3.01;82.89;100937.58;106477;1256;101458;-84
2024/04/22 00:53:59;;;;;;;2.60;2.20;;;;;;;3.05;82.77;100939.02;106342;1254;99085;-84
2024/04/22 00:56:47;;;;;;;5.70;2.30;;;;;;;3.04;82.34;100938.48;106220;1256;98012;-83
2024/04/22 00:59:32;;;;;;;3.20;2.10;;;;;;;3.07;82.57;100934.63;106419;1254;98399;-83
2024/04/22 01:02:18;;;;;;;4.10;2.40;;;;;;;3.09;82.68;100931.95;106359;1254;98168;-84
2024/04/22 01:05:04;;;;;;;4.60;2.30;;;;;;;3.10;82.73;100928.64;106508;1252;101419;-83
2024/04/22 01:07:50;;;;;;;3.90;2.30;;;;;;;3.13;82.66;100926.99;106335;1254;100337;-83
2024/04/22 01:10:35;;;;;;;6.40;3.10;;;;;;;3.13;82.63;100925.45;106400;1257;99253;-84
2024/04/22 01:13:21;;;;;;;3.50;2.60;;;;;;;3.15;82.62;100924.20;106516;1258;98413;-84
2024/04/22 01:16:08;;;;;;;2.80;2.30;;;;;;;3.16;82.72;100920.77;106384;1254;98477;-84
2024/04/22 01:18:53;;;;;;;4.80;2.40;;;;;;;3.15;82.33;100919.45;106474;1256;102553;-86
2024/04/22 01:21:39;;;;;;;2.10;1.90;;;;;;;3.12;82.36;100917.92;106306;1254;100061;-84
2024/04/22 01:24:24;;;;;;;3.80;2.50;;;;;;;3.12;82.28;100916.49;106581;1256;98066;-84
2024/04/22 01:27:11;;;;;;;2.40;2.10;;;;;;;3.10;82.31;100916.31;106436;1254;98005;-83
2024/04/22 01:29:56;;;;;;;2.10;1.90;;;;;;;3.09;82.37;100920.30;106303;1256;97907;-84
2024/04/22 01:32:42;;;;;;;5.60;2.20;;;;;;;3.08;82.53;100919.13;106455;1256;101362;-85
2024/04/22 01:35:28;;;;;;;3.80;2.50;;;;;;;3.07;82.40;100917.81;106532;1259;100439;-83
2024/04/22 01:38:14;;;;;;;5.10;2.30;;;;;;;3.07;82.54;100918.34;106331;1254;99017;-85
2024/04/22 01:41:00;;;;;;;2.90;2.40;;;;;;;3.05;82.39;100916.38;106352;1251;98000;-83
2024/04/22 01:43:46;;;;;;;3.40;2.50;;;;;;;3.02;82.41;100912.80;106291;1254;98052;-83
2024/04/22 01:46:32;;;;;;;3.40;2.30;;;;;;;2.98;82.49;100911.74;106690;1255;102559;-84
2024/04/22 01:49:17;;;;;;;5.10;2.10;;;;;;;2.96;82.66;100908.37;106556;1251;100742;-85
2024/04/22 01:52:03;;;;;;;3.50;2.00;;;;;;;2.96;83.04;100907.16;106418;1257;98968;-85
2024/04/22 01:54:49;;;;;;;4.30;2.40;;;;;;;2.95;82.96;100906.34;106510;1254;97932;-85
2024/04/22 01:57:34;;;;;;;3.40;2.10;;;;;;;2.96;82.99;100908.16;106296;1256;98376;-84
2024/04/22 02:00:20;;;;;;;3.90;2.50;;;;;;;2.96;82.66;100907.16;106511;1251;101361;-83
2024/04/22 02:03:06;;;;;;;5.00;2.60;;;;;;;2.93;82.77;100905.09;106614;1254;99109;-84
2024/04/22 02:05:52;;;;;;;3.40;2.30;;;;;;;2.90;82.91;100905.31;106356;1255;99350;-83
2024/04/22 02:08:38;;;;;;;3.60;2.20;;;;;;;2.90;83.28;100904.45;106510;1259;99228;-82
2024/04/22 02:11:23;;;;;;;4.30;2.50;;;;;;;2.90;83.30;100906.96;106369;1254;98432;-83
2024/04/22 02:14:09;;;;;;;4.10;2.20;;;;;;;2.90;83.42;100905.58;106445;1254;102613;-83
2024/04/22 02:16:55;;;;;;;5.60;2.80;;;;;;;2.92;83.62;100904.68;106441;1251;99356;-83
2024/04/22 02:19:41;;;;;;;6.00;2.70;;;;;;;2.93;83.61;100903.52;106555;1256;98776;-85
2024/04/22 02:22:28;;;;;;;2.80;2.50;;;;;;;2.92;83.55;100901.17;106464;1254;97970;-83
2024/04/22 02:25:14;;;;;;;2.80;2.20;;;;;;;2.89;83.54;100900.83;106367;1254;97805;-83
2024/04/22 02:28:00;;;;;;;6.50;2.50;;;;;;;2.90;83.60;100897.45;106318;1253;102137;-85
2024/04/22 02:30:46;;;;;;;3.20;2.40;;;;;;;2.90;84.00;100899.92;106722;1255;99113;-83
2024/04/22 02:33:32;;;;;;;4.30;2.00;;;;;;;2.89;83.95;100898.54;106303;1254;99360;-85
2024/04/22 02:36:18;;;;;;;2.70;2.30;;;;;;;2.88;83.73;100897.77;106390;1253;97900;-84
2024/04/22 02:39:04;;;;;;;4.60;2.00;;;;;;;2.88;84.12;100899.67;106691;1255;97954;-85
2024/04/22 02:41:50;;;;;;;3.00;2.20;;;;;;;2.90;83.95;100899.89;106548;1251;102578;-84
2024/04/22 02:44:35;;;;;;;5.90;2.40;;;;;;;2.87;83.91;100897.67;106375;1254;100347;-83
2024/04/22 02:47:21;;;;;;;4.80;2.60;;;;;;;2.83;83.80;100895.52;106394;1253;99483;-85
2024/04/22 02:50:07;;;;;;;3.40;2.70;;;;;;;2.83;84.23;100893.95;106511;1256;97969;-84
2024/04/22 02:52:53;;;;;;;3.70;2.20;;;;;;;2.85;84.29;100890.59;106578;1251;97900;-84
2024/04/22 02:55:39;;;;;;;4.40;2.40;;;;;;;2.87;84.36;100894.33;106649;1254;101965;-84
2024/04/22 02:58:24;;;;;;;4.80;2.60;;;;;;;2.84;84.26;100891.55;106485;1253;99165;-82
2024/04/22 03:01:10;;;;;;;4.20;2.50;;;;;;;2.86;84.44;100889.51;106226;1254;99068;-83
2024/04/22 03:03:55;;;;;;;3.70;2.30;;;;;;;2.89;84.67;100888.52;106376;1254;97866;-84
2024/04/22 03:06:41;;;;;;;3.30;2.50;;;;;;;2.92;84.81;100886.15;106330;1254;98012;-84
2024/04/22 03:09:32;;;;;;;5.30;2.90;;;;;;;2.92;84.61;100883.34;106375;1255;101337;-84
2024/04/22 03:12:18;;;;;;;4.80;2.90;;;;;;;2.92;84.65;100884.73;106437;1254;99239;-85
2024/04/22 03:15:04;;;;;;;3.60;2.50;;;;;;;2.91;84.82;100882.46;106381;1251;98000;-85
2024/04/22 03:17:50;;;;;;;5.60;2.70;;;;;;;2.92;84.81;100879.24;106328;1251;97848;-85
2024/04/22 03:20:37;;;;;;;4.80;2.90;;;;;;;2.93;84.79;100880.94;106523;1256;97999;-85
2024/04/22 03:23:22;;;;;;;5.10;2.70;;;;;;;2.95;84.89;100879.72;106570;1254;102580;-84
2024/04/22 03:26:10;;;;;;;3.90;2.60;;;;;;;2.97;85.05;100880.56;106483;1253;99196;-85
2024/04/22 03:28:58;;;;;;;6.00;3.00;;;;;;;2.99;85.20;100879.54;106641;1254;98572;-83
2024/04/22 03:31:44;;;;;;;4.70;2.70;;;;;;;2.98;85.05;100878.96;106401;1259;97956;-85
2024/04/22 03:34:30;;;;;;;4.50;2.70;;;;;;;2.93;85.07;100878.96;106470;1256;97941;-85
2024/04/22 03:37:16;;;;;;;3.70;3.00;;;;;;;2.88;85.30;100877.97;106513;1256;102188;-85
2024/04/22 03:40:02;;;;;;;3.40;2.90;;;;;;;2.86;85.57;100880.65;106477;1259;99118;-83
2024/04/22 03:42:48;;;;;;;4.70;2.90;;;;;;;2.83;85.75;100878.82;106766;1254;97702;-82
2024/04/22 03:45:35;;;;;;;5.30;3.10;;;;;;;2.82;86.05;100879.98;106461;1251;98551;-82
2024/04/22 03:51:25;;;;;;;4.70;2.80;;;;;;;2.75;86.38;100884.28;106480;1256;101353;-85
2024/04/22 03:54:11;;;;;;;4.60;2.90;;;;;;;2.71;86.42;100886.06;106524;1252;99104;-83
2024/04/22 03:56:57;;;;;;;4.10;2.60;;;;;;;2.69;86.79;100889.05;106636;1256;99019;-83
2024/04/22 03:59:43;;;;;;;5.30;3.70;;;;;;;2.69;87.13;100887.58;106368;1253;98013;-84
2024/04/22 04:02:28;;;;;;;4.70;3.60;;;;;;;2.69;87.14;100887.80;106640;1254;98418;-83
2024/04/22 04:05:14;;;;;;;3.30;2.60;;;;;;;2.70;87.38;100883.11;106595;1254;102524;-83
2024/04/22 04:08:00;;;;;;;6.90;3.20;;;;;;;2.70;87.54;100883.84;106520;1257;100464;-83
2024/04/22 04:10:46;;;;;;;8.70;4.00;;;;;;;2.69;87.54;100885.11;106591;1256;98531;-85
2024/04/22 04:13:31;;;;;;;3.40;2.50;;;;;;;2.70;87.78;100890.17;106498;1251;97942;-84
2024/04/22 04:16:18;;;;;;;4.60;2.90;;;;;;;2.71;88.03;100893.46;106495;1254;98741;-84
2024/04/22 04:19:03;;;;;;;4.30;2.90;;;;;;;2.69;87.97;100894.97;106365;1256;102639;-84
2024/04/22 04:21:49;;;;;;;4.10;3.20;;;;;;;2.70;88.23;100889.29;106518;1254;99103;-83
2024/04/22 04:24:35;;;;;;;3.60;2.90;;;;;;;2.73;88.50;100886.52;106403;1259;98589;-83
2024/04/22 04:27:20;;;;;;;6.30;2.70;;;;;;;2.77;88.53;100888.50;106376;1259;97964;-85
2024/04/22 04:30:06;;;;;;;5.20;2.40;;;;;;;2.77;88.49;100888.87;106220;1256;97910;-85
2024/04/22 04:32:52;;;;;;;3.90;2.50;;;;;;;2.74;88.54;100892.10;106499;1253;102612;-82
2024/04/22 04:35:37;;;;;;;6.70;3.40;;;;;;;2.77;88.86;100895.05;106571;1256;100364;-84
2024/04/22 04:38:23;;;;;;;4.10;3.10;;;;;;;2.79;88.89;100895.90;106474;1256;98666;-84
2024/04/22 04:41:08;;;;;;;4.70;2.90;;;;;;;2.78;88.99;100896.19;106453;1259;97957;-82
2024/04/22 04:43:54;;;;;;;3.90;2.80;;;;;;;2.78;88.87;100899.88;106438;1254;98413;-85
2024/04/22 04:46:40;;;;;;;5.00;2.80;;;;;;;2.76;89.13;100903.37;106298;1251;102603;-83
2024/04/22 04:49:26;;;;;;;5.40;3.00;;;;;;;2.75;89.36;100906.70;106432;1253;99127;-84
2024/04/22 04:52:11;;;;;;;6.30;3.40;;;;;;;2.74;89.65;100908.16;106240;1253;97996;-84
2024/04/22 04:54:57;;;;;;;6.20;3.50;;;;;;;2.74;89.79;100909.42;106493;1254;98020;-83
2024/04/22 04:57:43;;;;;;;5.20;3.40;;;;;;;2.73;89.88;100912.33;106477;1254;97890;-85
2024/04/22 05:00:28;;;;;;;4.60;3.10;;;;;;;2.72;89.91;100914.50;106801;1256;101336;-84
2024/04/22 05:03:14;;;;;;;5.80;3.20;;;;;;;2.72;90.11;100917.34;106273;1253;99871;-84
2024/04/22 05:06:02;;;;;;;4.60;2.90;;;;;;;2.73;90.42;100920.05;106598;1254;99254;-82
2024/04/22 05:08:47;;;;;;;10.90;4.00;;;;;;;2.75;90.51;100923.27;106379;1254;97964;-85
2024/04/22 05:11:33;;;;;;;5.50;3.30;;;;;;;2.72;90.52;100924.88;106712;1254;98429;-83
2024/04/22 05:14:19;;;;;;;5.10;3.60;;;;;;;2.72;90.71;100927.75;106319;1258;102636;-83
2024/04/22 05:17:04;;;;;;;4.00;2.90;;;;;;;2.72;90.96;100929.52;106285;1251;99105;-86
2024/04/22 05:19:50;;;;;;;7.40;4.10;;;;;;;2.70;90.97;100931.02;106451;1256;98444;-83
2024/04/22 05:22:36;;;;;;;7.20;3.70;;;;;;;2.71;91.41;100933.62;106427;1259;98066;-84
2024/04/22 05:25:22;;;;;;;4.90;3.20;;;;;;;2.72;91.45;100937.05;106402;1256;98396;-84
2024/04/22 05:28:08;;;;;;;5.10;4.00;;;;;;;2.74;91.59;100936.58;106336;1254;102762;-83
2024/04/22 05:30:54;;;;;;;4.70;3.60;;;;;;;2.73;91.65;100938.06;106437;1256;99110;-83
2024/04/22 05:36:43;;;;;;;5.20;3.60;;;;;;;2.77;91.79;100938.18;106332;1254;97969;-85
2024/04/22 05:39:29;;;;;;;4.20;3.40;;;;;;;2.79;91.81;100932.74;106509;1254;97986;-85
2024/04/22 05:42:16;;;;;;;6.50;3.10;;;;;;;2.83;91.93;100937.05;106366;1254;102065;-83
2024/04/22 05:45:02;;;;;;;4.20;3.40;;;;;;;2.85;92.05;100932.80;106310;1257;100346;-83
2024/04/22 05:47:47;;;;;;;4.90;2.80;;;;;;;2.89;92.22;100931.23;106557;1256;98002;-84
2024/04/22 05:50:33;;;;;;;3.40;3.10;;;;;;;2.96;92.58;100931.14;106269;1254;98975;-83
2024/04/22 05:53:19;;;;;;;4.60;3.20;;;;;;;3.04;92.61;100930.46;106218;1259;98065;-84
2024/04/22 05:56:05;;;;;;;6.80;3.90;;;;;;;3.08;92.11;100927.06;106320;1256;101337;-83
2024/04/22 05:58:51;;;;;;;3.40;3.10;;;;;;;3.11;91.99;100926.84;106372;1251;100451;-86
2024/04/22 06:01:37;;;;;;;4.00;3.60;;;;;;;3.14;91.50;100920.54;106325;1251;98004;-85
2024/04/22 06:04:23;;;;;;;3.80;3.00;;;;;;;3.17;91.49;100920.00;106368;1254;97928;-85
2024/04/22 06:07:09;;;;;;;6.10;3.50;;;;;;;3.21;91.74;100920.49;106442;1257;98046;-86
2024/04/22 06:09:54;;;;;;;4.50;3.10;;;;;;;3.26;91.46;100920.25;106489;1256;102695;-84
2024/04/22 06:12:40;;;;;;;4.80;3.10;;;;;;;3.32;91.81;100923.76;106282;1251;99957;-83
2024/04/22 06:15:26;;;;;;;4.30;3.00;;;;;;;3.39;91.60;100924.06;106737;1251;98497;-84
2024/04/22 06:18:12;;;;;;;4.80;2.90;;;;;;;3.42;91.05;100923.58;106468;1259;97900;-84
2024/04/22 06:20:58;;;;;;;6.40;3.40;;;;;;;3.47;91.45;100923.32;106316;1257;98396;-84
2024/04/22 06:23:44;;;;;;;4.60;2.90;;;;;;;3.54;91.52;100923.80;106484;1257;101383;-84
2024/04/22 06:26:31;;;;;;;5.50;3.30;;;;;;;3.61;91.32;100920.27;106604;1258;108039;-82
2024/04/22 06:29:17;;;;;;;4.90;3.30;;;;;;;3.62;90.74;100921.48;106448;1254;98490;-84
2024/04/22 06:32:04;;;;;;;5.50;3.00;;;;;;;3.59;90.44;100919.65;106641;1259;97961;-84
2024/04/22 06:34:49;;;;;;;3.60;3.10;;;;;;;3.58;90.60;100920.94;106241;1260;97888;-82
2024/04/22 06:37:35;;;;;;;4.20;3.00;;;;;;;3.60;90.44;100920.25;106379;1256;101325;-83
2024/04/22 06:40:21;;;;;;;3.30;2.80;;;;;;;3.62;90.51;100918.30;106236;1251;100525;-79
2024/04/22 06:43:07;;;;;;;5.20;3.10;;;;;;;3.67;90.61;100917.53;106489;1256;98601;-82
2024/04/22 06:45:52;;;;;;;4.30;2.80;;;;;;;3.72;90.72;100920.73;106328;1257;98018;-81
2024/04/22 06:48:38;;;;;;;4.60;3.40;;;;;;;3.77;90.33;100921.55;106578;1257;98001;-80
2024/04/22 06:51:24;;;;;;;4.10;3.20;;;;;;;3.78;90.06;100924.06;106153;1254;102539;-81
2024/04/22 06:54:10;;;;;;;5.40;2.90;;;;;;;3.82;89.89;100924.46;106284;1254;99129;-82
2024/04/22 06:56:55;;;;;;;5.50;3.00;;;;;;;3.86;89.72;100921.77;106561;1259;98768;-81
2024/04/22 06:59:42;;;;;;;4.80;3.10;;;;;;;3.93;90.13;100923.80;106439;1257;97993;-82
2024/04/22 07:02:28;;;;;;;7.20;3.10;;;;;;;4.01;89.97;100924.16;106373;1257;96642;-83
2024/04/22 07:05:14;;;;;;;3.70;2.60;;;;;;;4.10;89.78;100923.86;106311;1257;101349;-81
2024/04/22 07:08:00;;;;;;;3.10;2.70;;;;;;;4.16;88.57;100922.80;106342;1260;99254;-77
2024/04/22 07:10:45;;;;;;;4.50;3.20;;;;;;;4.21;88.76;100918.59;105890;1254;98983;-79
2024/04/22 07:13:30;;;;;;;4.00;3.20;;;;;;;4.33;88.82;100912.95;105766;1257;98067;-79
2024/04/22 07:16:16;;;;;;;5.30;2.60;;;;;;;4.45;89.24;100922.42;106105;1264;98464;-81
2024/04/22 07:19:01;;;;;;;4.10;2.90;;;;;;;4.52;87.92;100929.48;106034;1259;102195;-78
2024/04/22 07:21:47;;;;;;;4.20;2.30;;;;;;;4.55;87.23;100926.09;106204;1259;101265;-80
2024/04/22 07:24:33;;;;;;;4.00;2.70;;;;;;;4.59;87.00;100926.09;105490;1254;98421;-76
2024/04/22 07:27:19;;;;;;;4.60;2.90;;;;;;;4.65;87.17;100922.52;105818;1257;97956;-79
2024/04/22 07:30:05;;;;;;;3.90;2.70;;;;;;;4.76;86.84;100927.52;106264;1258;98399;-78
2024/04/22 07:32:51;;;;;;;5.70;2.70;;;;;;;4.84;86.46;100928.18;105758;1257;101345;-76
2024/04/22 07:35:49;;;;;;;3.50;2.90;;;;;;;4.88;86.39;100930.44;105847;1257;100486;-77
2024/04/22 07:38:36;;;;;;;2.70;2.40;;;;;;;4.93;85.42;100936.20;105759;1266;98730;-79
2024/04/22 07:41:22;;;;;;;4.40;2.80;;;;;;;4.89;84.88;100938.84;106347;1257;97878;-81
2024/04/22 07:44:08;;;;;;;4.60;2.90;;;;;;;4.95;84.99;100937.91;106348;1269;98062;-80
2024/04/22 07:46:53;;;;;;;4.20;2.70;;;;;;;5.08;84.68;100932.80;106618;1254;102619;-78
2024/04/22 07:49:39;;;;;;;3.90;2.90;;;;;;;5.18;84.92;100939.13;106091;1260;100061;-79
2024/04/22 07:52:25;;;;;;;6.20;3.20;;;;;;;5.19;84.29;100941.27;106301;1260;98976;-81
2024/04/22 07:55:12;;;;;;;4.80;2.80;;;;;;;5.18;84.10;100943.14;106507;1257;97983;-84
2024/04/22 07:57:58;;;;;;;3.50;3.20;;;;;;;5.16;83.52;100948.30;106433;1254;97942;-80
2024/04/22 08:00:45;;;;;;;3.80;2.60;;;;;;;5.12;83.40;100946.01;106441;1259;101377;-82
2024/04/22 08:03:31;;;;;;;4.10;3.10;;;;;;;5.11;83.34;100944.03;106591;1257;99129;-81
2024/04/22 08:06:19;;;;;;;10.30;2.80;;;;;;;5.12;83.04;100943.38;106748;1255;98998;-81
2024/04/22 08:09:05;;;;;;;5.30;2.60;;;;;;;5.13;83.17;100946.29;107344;1257;98087;-81
2024/04/22 08:11:50;;;;;;;3.30;2.60;;;;;;;5.11;82.45;100947.38;106415;1254;97907;-81
2024/04/22 08:14:36;;;;;;;3.10;2.70;;;;;;;5.08;82.26;100948.42;106650;1254;102689;-82
2024/04/22 08:17:22;;;;;;;4.90;2.90;;;;;;;5.09;82.22;100949.73;106474;1267;99127;-82
2024/04/22 08:20:07;;;;;;;3.20;2.60;;;;;;;5.07;82.13;100950.77;106392;1257;99006;-82
2024/04/22 08:22:53;;;;;;;4.60;2.50;;;;;;;5.11;82.60;100950.14;106426;1254;98088;-82
2024/04/22 08:25:42;;;;;;;3.30;2.40;;;;;;;5.17;82.15;100950.13;106415;1260;98021;-83
2024/04/22 08:28:28;;;;;;;3.10;2.40;;;;;;;5.18;81.68;100948.98;106568;1257;101477;-82
2024/04/22 08:31:14;;;;;;;3.10;2.80;;;;;;;5.20;81.81;100946.30;106052;1257;99157;-83
2024/04/22 08:34:00;;;;;;;3.90;2.50;;;;;;;5.23;81.70;100946.70;106332;1254;99018;-80
2024/04/22 08:36:46;;;;;;;3.50;2.70;;;;;;;5.24;80.93;100947.40;106608;1254;97872;-79
2024/04/22 08:39:32;;;;;;;6.20;2.60;;;;;;;5.22;80.93;100946.17;106340;1254;98017;-81
2024/04/22 08:42:19;;;;;;;5.70;2.30;;;;;;;5.25;81.15;100945.13;106400;1253;102641;-82
2024/04/22 08:45:06;;;;;;;3.10;2.80;;;;;;;5.29;81.59;100943.99;106216;1254;100573;-83
2024/04/22 08:47:52;;;;;;;3.30;2.30;;;;;;;5.33;81.03;100944.52;106255;1260;98916;-79
2024/04/22 08:50:40;;;;;;;4.10;3.10;;;;;;;5.35;80.58;100948.48;105978;1265;97897;-80
2024/04/22 08:53:27;;;;;;;3.30;2.20;;;;;;;5.37;79.72;100951.10;105963;1254;100784;-81
2024/04/22 08:56:13;;;;;;;4.50;2.50;;;;;;;5.34;79.28;100953.10;106459;1256;102551;-82
2024/04/22 08:58:59;;;;;;;5.20;2.80;;;;;;;5.32;79.53;100951.35;106339;1254;99113;-80
2024/04/22 09:01:44;;;;;;;4.00;3.00;;;;;;;5.34;79.40;100955.82;106775;1253;97900;-80
2024/04/22 09:04:30;;;;;;;4.30;2.50;;;;;;;5.31;78.78;100957.11;106012;1255;98079;-81
2024/04/22 09:07:17;;;;;;;4.00;2.40;;;;;;;5.30;78.42;100961.49;106524;1257;97928;-85
2024/04/22 09:10:04;;;;;;;3.10;2.60;;;;;;;5.30;78.61;100961.70;106465;1253;102582;-80
2024/04/22 09:13:00;;;;;;;5.60;2.80;;;;;;;5.30;78.59;100964.09;106635;1253;100204;-80
2024/04/22 09:15:56;;;;;;;5.10;2.80;;;;;;;5.32;78.77;100969.98;107055;1254;97968;-82
2024/04/22 09:18:42;;;;;;;2.70;2.50;;;;;;;5.32;77.84;100974.55;107162;1257;98075;-79
2024/04/22 09:21:28;;;;;;;3.90;2.50;;;;;;;5.31;78.17;100977.52;106989;1257;98063;-79
2024/04/22 09:24:14;;;;;;;3.90;2.80;;;;;;;5.33;78.35;100980.38;107350;1251;101340;-81
2024/04/22 09:27:00;;;;;;;4.60;2.40;;;;;;;5.34;78.61;100978.98;107359;1251;100560;-80
2024/04/22 09:29:47;;;;;;;4.30;2.70;;;;;;;5.34;78.28;100985.02;106488;1257;98904;-78
2024/04/22 09:32:34;;;;;;;5.30;2.60;;;;;;;5.31;78.17;100986.15;105918;1256;98070;-79
2024/04/22 09:35:21;;;;;;;4.70;2.40;;;;;;;5.31;77.80;100990.09;106546;1251;98962;-81
2024/04/22 09:38:09;;;;;;;3.20;2.60;;;;;;;5.33;78.04;100991.64;106914;1257;101260;-81
2024/04/22 09:40:56;;;;;;;4.00;2.80;;;;;;;5.39;78.46;100990.02;106620;1254;99104;-81
2024/04/22 09:43:42;;;;;;;4.00;2.90;;;;;;;5.42;77.79;100989.17;106674;1254;97956;-81
2024/04/22 09:46:29;;;;;;;4.00;2.80;;;;;;;5.42;78.23;100992.02;106505;1254;98003;-78
2024/04/22 09:49:17;;;;;;;6.30;2.90;;;;;;;5.42;77.63;100996.31;106094;1258;98648;-79
2024/04/22 09:52:04;;;;;;;3.30;2.60;;;;;;;5.37;77.29;101001.74;106081;1260;101351;-79
2024/04/22 09:54:51;;;;;;;4.50;3.00;;;;;;;5.29;76.90;101010.99;106446;1254;100566;-84
2024/04/22 09:57:41;;;;;;;3.90;2.70;;;;;;;5.23;76.12;101011.39;106333;1254;99060;-84
2024/04/22 10:00:27;;;;;;;5.70;2.60;;;;;;;5.21;76.32;101011.17;106624;1253;97869;-83
2024/04/22 10:03:13;;;;;;;3.20;2.80;;;;;;;5.25;77.38;101010.52;106224;1254;98386;-82
2024/04/22 10:05:59;;;;;;;5.50;3.00;;;;;;;5.31;77.82;101010.09;106399;1254;102678;-85
2024/04/22 10:08:47;;;;;;;3.90;2.80;;;;;;;5.38;77.91;101014.89;106489;1254;99256;-84
2024/04/22 10:11:36;;;;;;;4.00;2.80;;;;;;;5.41;77.02;101014.13;106836;1258;99071;-85
2024/04/22 10:14:27;;;;;;;5.50;3.20;;;;;;;5.37;76.30;101017.45;106811;1254;97905;-85
2024/04/22 10:17:13;;;;;;;3.60;2.50;;;;;;;5.35;75.98;101017.46;106560;1257;97960;-86
2024/04/22 10:20:03;;;;;;;5.50;3.10;;;;;;;5.37;75.96;101019.27;106367;1256;101306;-83
2024/04/22 10:22:49;;;;;;;6.00;2.70;;;;;;;5.39;76.39;101022.63;107059;1254;100066;-85
2024/04/22 10:25:35;;;;;;;3.60;2.30;;;;;;;5.46;76.67;101023.02;106402;1257;98047;-83
2024/04/22 10:28:21;;;;;;;4.10;2.90;;;;;;;5.53;76.77;101019.69;106394;1255;98162;-84
2024/04/22 10:31:06;;;;;;;3.30;3.00;;;;;;;5.64;76.96;101018.88;106396;1254;97878;-83
2024/04/22 10:33:52;;;;;;;2.60;2.40;;;;;;;5.71;75.81;101015.71;106458;1256;101427;-83
2024/04/22 10:36:37;;;;;;;2.80;2.20;;;;;;;5.75;75.03;101016.23;106372;1254;99153;-84
2024/04/22 10:39:23;;;;;;;2.00;1.80;;;;;;;5.78;74.91;101011.66;106368;1254;99260;-85
2024/04/22 10:42:10;;;;;;;3.70;2.30;;;;;;;5.80;74.23;101013.78;106342;1254;98735;-84
2024/04/22 10:44:56;;;;;;;3.70;2.30;;;;;;;5.81;74.45;101015.45;106408;1254;97828;-85
2024/04/22 10:47:42;;;;;;;3.30;2.10;;;;;;;5.84;73.99;101015.85;106449;1254;102610;-84
2024/04/22 10:50:28;;;;;;;3.30;2.20;;;;;;;5.87;73.91;101018.54;106458;1253;99228;-84
2024/04/22 10:53:13;;;;;;;2.80;2.10;;;;;;;5.91;73.50;101018.55;106345;1255;98427;-85
2024/04/22 10:56:00;;;;;;;2.70;2.10;;;;;;;5.94;73.71;101020.69;106319;1254;97913;-83
2024/04/22 10:58:47;;;;;;;2.80;2.10;;;;;;;5.96;72.77;101023.36;106527;1254;96478;-84
2024/04/22 11:01:32;;;;;;;3.30;2.20;;;;;;;5.96;73.02;101023.90;106624;1254;101319;-84
2024/04/22 11:04:18;;;;;;;3.00;2.10;;;;;;;5.92;71.52;101024.81;106618;1254;99768;-82
2024/04/22 11:07:04;;;;;;;2.10;1.80;;;;;;;5.85;71.48;101025.04;106320;1260;97936;-84
2024/04/22 11:09:51;;;;;;;2.30;2.10;;;;;;;5.81;71.78;101024.43;106474;1258;97951;-84
2024/04/22 11:12:37;;;;;;;2.90;2.40;;;;;;;5.81;71.78;101025.88;106271;1255;98406;-82
2024/04/22 11:15:24;;;;;;;2.10;1.80;;;;;;;5.79;71.61;101029.64;106478;1255;101350;-84
2024/04/22 11:18:09;;;;;;;3.20;2.10;;;;;;;5.75;71.80;101031.27;106314;1260;99393;-84
2024/04/22 11:20:55;;;;;;;6.90;3.50;;;;;;;5.73;71.70;101030.49;106680;1254;98064;-88
2024/04/22 11:23:41;;;;;;;3.90;3.10;;;;;;;5.72;71.97;101032.74;106397;1257;97981;-86
2024/04/22 11:26:27;;;;;;;3.70;3.30;;;;;;;5.77;72.36;101027.52;106298;1263;98445;-85
2024/04/22 11:29:13;;;;;;;5.80;3.10;;;;;;;5.82;72.30;101025.95;106206;1256;102606;-83
2024/04/22 11:32:01;;;;;;;4.40;3.20;;;;;;;5.88;72.54;101027.88;106335;1257;100298;-85
2024/04/22 11:34:46;;;;;;;3.40;2.70;;;;;;;5.93;72.37;101024.38;106299;1260;99003;-84
2024/04/22 11:37:32;;;;;;;2.90;2.00;;;;;;;5.96;71.52;101028.02;106568;1260;97964;-82
2024/04/22 11:40:17;;;;;;;3.20;2.70;;;;;;;5.98;71.87;101024.79;106161;1257;98610;-83
2024/04/22 11:43:03;;;;;;;4.10;2.80;;;;;;;6.05;71.98;101020.23;106285;1257;102590;-81
2024/04/22 11:45:52;;;;;;;3.20;2.60;;;;;;;6.13;71.39;101022.39;106265;1257;99821;-81
2024/04/22 11:48:37;;;;;;;3.50;2.90;;;;;;;6.17;71.26;101025.98;106381;1256;98976;-83
2024/04/22 11:51:23;;;;;;;5.00;2.80;;;;;;;6.20;71.30;101023.89;106135;1256;98486;-84
2024/04/22 11:54:09;;;;;;;6.80;4.00;;;;;;;6.22;71.38;101023.13;106091;1262;98325;-84
2024/04/22 11:56:55;;;;;;;5.20;2.80;;;;;;;6.27;71.73;101024.41;106423;1256;102639;-80
2024/04/22 11:59:40;;;;;;;2.50;2.30;;;;;;;6.29;71.00;101030.69;106202;1257;99093;-83
2024/04/22 12:02:27;;;;;;;4.30;2.80;;;;;;;6.26;70.28;101030.23;106458;1257;98935;-86
2024/04/22 12:05:14;;;;;;;3.80;2.60;;;;;;;6.23;70.21;101032.95;106394;1257;98140;-84
2024/04/22 12:08:00;;;;;;;3.10;2.30;;;;;;;6.19;69.75;101036.20;106381;1254;98918;-82
2024/04/22 12:10:47;;;;;;;3.80;2.40;;;;;;;6.10;69.40;101038.66;106283;1259;102602;-84
2024/04/22 12:13:32;;;;;;;2.40;2.20;;;;;;;6.03;69.50;101034.08;106231;1256;100365;-82
2024/04/22 12:16:18;;;;;;;3.20;2.20;;;;;;;6.02;69.91;101038.36;106548;1257;98998;-84
2024/04/22 12:19:04;;;;;;;4.00;2.60;;;;;;;6.00;69.39;101039.33;106292;1256;97865;-84
2024/04/22 12:21:50;;;;;;;3.90;2.80;;;;;;;5.96;69.63;101039.02;106554;1254;97929;-84
2024/04/22 12:24:36;;;;;;;4.50;2.70;;;;;;;5.94;69.76;101040.41;106659;1253;103636;-85
2024/04/22 12:27:23;;;;;;;3.20;2.30;;;;;;;5.94;69.93;101040.98;106407;1257;100489;-84
2024/04/22 12:30:09;;;;;;;3.00;2.60;;;;;;;5.99;70.31;101039.79;107457;1254;97922;-85
2024/04/22 12:32:55;;;;;;;4.00;2.80;;;;;;;6.02;69.79;101042.79;106275;1260;97985;-84
2024/04/22 12:35:41;;;;;;;4.20;2.80;;;;;;;6.06;69.98;101042.30;106310;1254;98385;-83
2024/04/22 12:38:27;;;;;;;3.40;2.50;;;;;;;6.11;69.98;101040.38;106276;1254;101307;-85
2024/04/22 12:41:13;;;;;;;6.90;2.70;;;;;;;6.13;69.42;101034.86;106199;1254;100366;-83
2024/04/22 12:43:59;;;;;;;4.80;2.70;;;;;;;6.18;69.84;101034.91;106352;1254;98066;-82
2024/04/22 12:52:53;;;;;;;3.70;2.50;;;;;;;6.31;69.68;101023.73;106369;1253;101884;-86
2024/04/22 12:55:39;;;;;;;2.50;2.00;;;;;;;6.33;69.50;101024.97;106282;1254;101255;-85
2024/04/22 12:58:28;;;;;;;3.70;2.70;;;;;;;6.34;69.48;101026.64;106278;1254;99338;-84
2024/04/22 13:01:16;;;;;;;5.70;2.20;;;;;;;6.33;69.23;101026.88;106553;1254;99247;-85